Time;durP1;ratioP1;P1;durP2;ratioP2;P2;SDS_P1;SDS_P2;PMS_P1;PMS_P2;Temp;Humidity;BMP_temperature;BMP_pressure;BME280_temperature;BME280_humidity;BME280_pressure;Samples;Min_cycle;Max_cycle;Signal;HPM_P1;HPM_P2
2022/05/12 00:00:25;;;;;;;3.47;1.85;;;19.10;92.80;;;;;;5057227;28;20214;-43
2022/05/12 00:02:55;;;;;;;3.78;2.05;;;19.00;92.80;;;;;;5058365;28;20207;-44
2022/05/12 00:05:23;;;;;;;4.22;1.95;;;19.00;92.70;;;;;;5061191;28;20192;-44
2022/05/12 00:07:51;;;;;;;3.45;1.80;;;18.90;92.90;;;;;;5057421;28;20294;-44
2022/05/12 00:10:23;;;;;;;5.03;2.53;;;18.90;93.10;;;;;;5069295;28;20223;-44
2022/05/12 00:12:51;;;;;;;5.80;2.60;;;18.90;93.30;;;;;;5063127;28;20326;-44
2022/05/12 00:15:22;;;;;;;4.90;2.78;;;18.80;92.80;;;;;;5050049;28;20238;-44
2022/05/12 00:17:50;;;;;;;6.38;2.92;;;18.70;92.90;;;;;;5053988;28;20543;-44
2022/05/12 00:20:23;;;;;;;6.15;2.97;;;18.70;92.50;;;;;;5070809;28;20203;-44
2022/05/12 00:22:50;;;;;;;4.22;2.33;;;18.60;92.60;;;;;;5068349;28;20745;-44
2022/05/12 00:25:22;;;;;;;4.53;2.30;;;18.60;92.50;;;;;;5055717;28;20227;-44
2022/05/12 00:27:50;;;;;;;7.10;2.97;;;18.50;92.50;;;;;;5060405;28;20282;-36
2022/05/12 00:30:17;;;;;;;6.18;2.95;;;18.50;92.60;;;;;;5069406;28;20295;-35
2022/05/12 00:32:48;;;;;;;4.13;2.20;;;18.50;93.00;;;;;;5062193;28;20203;-36
2022/05/12 00:35:17;;;;;;;4.05;2.58;;;18.50;93.00;;;;;;5065249;28;20211;-36
2022/05/12 00:37:44;;;;;;;5.85;2.88;;;18.40;92.50;;;;;;5059051;28;20269;-36
2022/05/12 00:40:13;;;;;;;6.95;3.03;;;18.40;92.60;;;;;;5061382;28;20326;-36
2022/05/12 00:42:53;;;;;;;5.50;3.22;;;18.30;92.40;;;;;;5051927;28;20200;-36
2022/05/12 00:45:21;;;;;;;6.00;2.90;;;18.30;92.80;;;;;;5058039;28;20196;-35
2022/05/12 00:47:48;;;;;;;5.57;3.00;;;18.30;92.70;;;;;;5052566;28;20212;-36
2022/05/12 00:50:19;;;;;;;6.35;2.90;;;18.20;92.60;;;;;;5062456;28;20196;-35
2022/05/12 00:52:46;;;;;;;7.70;3.33;;;18.20;92.50;;;;;;5054718;28;20212;-35
2022/05/12 00:55:24;;;;;;;5.18;3.50;;;18.20;92.60;;;;;;5057507;28;20223;-35
2022/05/12 00:57:55;;;;;;;7.38;3.70;;;18.10;92.70;;;;;;5047809;28;20315;-35
2022/05/12 01:00:25;;;;;;;5.32;3.42;;;18.10;92.70;;;;;;5041812;28;20200;-35
2022/05/12 01:02:57;;;;;;;5.97;3.38;;;18.10;92.60;;;;;;5053411;28;20208;-35
2022/05/12 01:05:25;;;;;;;6.00;3.90;;;18.10;92.50;;;;;;5054349;28;20258;-36
2022/05/12 01:07:57;;;;;;;7.57;4.05;;;18.00;92.60;;;;;;5052854;28;20241;-35
2022/05/12 01:10:25;;;;;;;6.80;4.70;;;18.00;92.60;;;;;;5048533;28;20212;-36
2022/05/12 01:12:53;;;;;;;7.95;4.40;;;17.90;92.70;;;;;;5063261;28;20602;-35
2022/05/12 01:15:24;;;;;;;7.43;4.38;;;17.90;92.70;;;;;;5052740;28;20334;-36
2022/05/12 01:18:10;;;;;;;8.70;5.35;;;17.90;92.80;;;;;;5052944;28;20254;-35
2022/05/12 01:20:39;;;;;;;9.07;4.97;;;17.90;93.10;;;;;;5061745;28;20212;-44
2022/05/12 01:23:21;;;;;;;9.82;5.32;;;17.80;92.70;;;;;;5062893;28;20298;-44
2022/05/12 01:26:02;;;;;;;7.97;4.78;;;17.80;93.00;;;;;;5064285;28;20290;-44
2022/05/12 01:28:32;;;;;;;6.85;4.85;;;17.70;92.80;;;;;;5053109;28;20214;-45
2022/05/12 01:31:00;;;;;;;9.70;5.30;;;17.70;92.60;;;;;;5057286;28;20578;-44
2022/05/12 01:33:30;;;;;;;8.25;5.28;;;17.70;92.70;;;;;;5048914;28;20337;-44
2022/05/12 01:36:01;;;;;;;7.35;4.50;;;17.70;92.70;;;;;;5060696;28;20568;-44
2022/05/12 01:38:33;;;;;;;7.97;4.90;;;17.60;92.60;;;;;;5048684;28;20729;-44
2022/05/12 01:41:00;;;;;;;11.40;5.45;;;17.60;92.60;;;;;;5050702;28;20196;-44
2022/05/12 01:43:28;;;;;;;6.78;5.30;;;17.60;92.60;;;;;;5063586;28;20219;-44
2022/05/12 01:46:00;;;;;;;8.77;5.80;;;17.60;92.90;;;;;;5056892;28;20223;-44
2022/05/12 01:48:27;;;;;;;9.32;5.38;;;17.50;92.60;;;;;;5054975;28;20208;-44
2022/05/12 01:50:55;;;;;;;11.32;5.60;;;17.50;92.60;;;;;;5053869;28;20236;-44
2022/05/12 01:53:24;;;;;;;10.85;6.32;;;17.50;92.70;;;;;;5052855;28;20299;-44
2022/05/12 01:55:51;;;;;;;10.93;5.88;;;17.40;92.80;;;;;;5057195;28;20280;-44
2022/05/12 01:58:20;;;;;;;9.77;6.22;;;17.40;92.80;;;;;;5062979;28;20606;-43
2022/05/12 02:00:47;;;;;;;9.63;5.80;;;17.40;92.80;;;;;;5050806;28;20796;-46
2022/05/12 02:03:15;;;;;;;9.40;5.32;;;17.30;92.70;;;;;;5066348;28;20562;-46
2022/05/12 02:05:44;;;;;;;10.02;6.07;;;17.30;92.70;;;;;;5063773;28;20646;-45
2022/05/12 02:08:13;;;;;;;8.98;5.78;;;17.30;92.70;;;;;;5046806;28;20891;-45
2022/05/12 02:10:47;;;;;;;9.35;5.95;;;17.30;92.70;;;;;;5049630;28;20210;-46
2022/05/12 02:13:20;;;;;;;9.13;5.97;;;17.30;92.60;;;;;;5059172;28;20235;-46
2022/05/12 02:15:48;;;;;;;8.35;5.32;;;17.20;92.60;;;;;;5049178;28;20201;-46
2022/05/12 02:18:19;;;;;;;9.88;5.70;;;17.20;92.70;;;;;;5053739;28;20231;-46
2022/05/12 02:20:47;;;;;;;7.97;5.43;;;17.20;92.90;;;;;;5058542;28;20208;-45
2022/05/12 02:23:15;;;;;;;8.85;5.28;;;17.10;92.70;;;;;;5051080;28;20242;-46
2022/05/12 02:25:42;;;;;;;9.63;5.88;;;17.10;92.80;;;;;;5067780;28;20609;-46
2022/05/12 02:28:10;;;;;;;7.90;5.15;;;17.10;92.80;;;;;;5058472;28;20218;-46
2022/05/12 02:30:37;;;;;;;9.13;5.97;;;17.00;92.80;;;;;;5057222;28;20578;-46
2022/05/12 02:33:05;;;;;;;9.60;6.13;;;17.00;92.70;;;;;;5059550;28;20220;-46
2022/05/12 02:35:32;;;;;;;8.55;6.00;;;17.00;92.90;;;;;;5062795;28;20753;-46
2022/05/12 02:38:06;;;;;;;9.30;6.47;;;16.90;92.90;;;;;;5055754;28;20256;-46
2022/05/12 02:40:33;;;;;;;9.73;6.63;;;16.90;93.00;;;;;;5051699;28;20200;-45
2022/05/12 02:43:00;;;;;;;7.15;6.10;;;16.90;93.00;;;;;;5050504;28;20208;-46
2022/05/12 02:45:33;;;;;;;10.30;6.32;;;16.90;92.90;;;;;;5058982;28;20219;-46
2022/05/12 02:48:00;;;;;;;11.52;6.82;;;16.80;92.90;;;;;;5057947;28;20222;-36
2022/05/12 02:50:27;;;;;;;13.20;6.90;;;16.80;92.80;;;;;;5054300;28;20273;-34
2022/05/12 02:52:54;;;;;;;8.48;6.30;;;16.80;92.80;;;;;;5059515;28;20995;-36
2022/05/12 02:55:22;;;;;;;9.23;6.28;;;16.80;92.90;;;;;;5063026;28;20223;-37
2022/05/12 02:57:49;;;;;;;9.32;6.75;;;16.80;92.90;;;;;;5056023;28;20613;-37
2022/05/12 03:00:18;;;;;;;10.52;7.38;;;16.80;92.90;;;;;;5056751;28;20260;-37
2022/05/12 03:02:45;;;;;;;11.75;6.53;;;16.80;92.90;;;;;;5056010;28;20205;-37
2022/05/12 03:05:13;;;;;;;9.90;5.90;;;16.80;93.00;;;;;;5055512;28;20196;-37
2022/05/12 03:07:41;;;;;;;8.80;5.30;;;16.80;93.00;;;;;;5054776;28;20269;-37
2022/05/12 03:10:10;;;;;;;9.65;5.70;;;16.80;93.00;;;;;;5047136;28;20216;-36
2022/05/12 03:12:37;;;;;;;9.20;4.90;;;16.80;93.00;;;;;;5056502;28;20270;-37
2022/05/12 03:15:06;;;;;;;7.70;5.20;;;16.80;92.90;;;;;;5048464;28;20200;-35
2022/05/12 03:17:35;;;;;;;7.78;4.90;;;16.80;92.90;;;;;;5051490;28;20314;-45
2022/05/12 03:20:05;;;;;;;9.77;5.07;;;16.80;92.90;;;;;;5047590;28;20311;-44
2022/05/12 03:22:32;;;;;;;6.20;5.03;;;16.80;93.00;;;;;;5046817;28;20682;-43
2022/05/12 03:25:02;;;;;;;6.13;4.50;;;16.80;93.00;;;;;;5059836;28;20721;-44
2022/05/12 03:27:32;;;;;;;9.07;4.75;;;16.70;93.00;;;;;;5047762;28;20981;-44
2022/05/12 03:29:59;;;;;;;7.60;4.43;;;16.80;93.10;;;;;;5062884;28;20269;-35
2022/05/12 03:32:26;;;;;;;7.50;4.60;;;16.70;93.00;;;;;;5051457;28;20216;-35
2022/05/12 03:34:54;;;;;;;8.38;4.57;;;16.70;93.00;;;;;;5055701;28;20678;-35
2022/05/12 03:37:24;;;;;;;8.55;5.07;;;16.70;93.10;;;;;;5049220;28;20780;-35
2022/05/12 03:39:51;;;;;;;7.95;4.40;;;16.70;93.10;;;;;;5052365;28;20720;-35
2022/05/12 03:42:19;;;;;;;8.57;4.40;;;16.70;93.20;;;;;;5067208;28;20273;-35
2022/05/12 03:44:53;;;;;;;8.65;4.88;;;16.70;93.30;;;;;;5064201;28;20314;-35
2022/05/12 03:47:27;;;;;;;6.63;4.18;;;16.70;93.30;;;;;;5052828;28;20199;-35
2022/05/12 03:49:57;;;;;;;7.00;4.45;;;16.70;93.30;;;;;;5058575;28;20216;-35
2022/05/12 03:52:27;;;;;;;6.70;4.25;;;16.70;93.50;;;;;;5055015;28;20239;-35
2022/05/12 03:54:55;;;;;;;8.95;4.72;;;16.70;93.20;;;;;;5063179;28;20230;-35
2022/05/12 03:57:26;;;;;;;7.80;5.18;;;16.70;93.20;;;;;;5054916;28;20251;-35
2022/05/12 04:00:00;;;;;;;7.28;4.43;;;16.70;93.70;;;;;;5053264;28;20235;-35
2022/05/12 04:02:29;;;;;;;8.48;4.60;;;16.80;93.40;;;;;;5065904;28;20195;-35
2022/05/12 04:04:56;;;;;;;7.90;4.90;;;16.80;93.40;;;;;;5062408;28;20203;-43
2022/05/12 04:07:23;;;;;;;7.65;4.80;;;16.80;93.40;;;;;;5050244;28;20200;-43
2022/05/12 04:09:53;;;;;;;7.35;4.55;;;16.80;93.50;;;;;;5048976;28;20758;-43
2022/05/12 04:12:23;;;;;;;8.63;4.50;;;16.90;93.50;;;;;;5048416;28;20828;-43
2022/05/12 04:14:50;;;;;;;10.82;4.35;;;16.90;93.60;;;;;;5060347;28;20669;-44
2022/05/12 04:17:20;;;;;;;9.35;4.43;;;16.90;93.50;;;;;;5053443;28;20199;-43
2022/05/12 04:19:50;;;;;;;10.25;4.50;;;17.00;93.70;;;;;;5057547;28;20254;-43
2022/05/12 04:22:20;;;;;;;9.48;4.82;;;17.00;93.60;;;;;;5054756;28;20228;-43
2022/05/12 04:24:47;;;;;;;6.95;4.45;;;17.00;93.60;;;;;;5046918;28;20586;-43
2022/05/12 04:27:14;;;;;;;10.23;4.55;;;17.10;93.70;;;;;;5053498;28;20204;-46
2022/05/12 04:29:44;;;;;;;8.02;4.13;;;17.10;93.70;;;;;;5048287;28;20724;-44
2022/05/12 04:32:11;;;;;;;9.98;4.60;;;17.10;93.80;;;;;;5053912;28;20281;-44
2022/05/12 04:37:29;;;;;;;10.75;4.47;;;17.10;93.80;;;;;;5052515;28;20212;-43
2022/05/12 04:40:15;;;;;;;10.25;4.80;;;17.10;93.90;;;;;;5054320;28;20223;-43
2022/05/12 04:42:43;;;;;;;12.68;4.30;;;17.10;94.00;;;;;;5051833;28;20679;-44
2022/05/12 04:45:14;;;;;;;8.13;4.57;;;17.10;93.90;;;;;;5062152;28;20193;-43
2022/05/12 04:47:45;;;;;;;9.18;4.07;;;17.10;93.90;;;;;;5047077;28;20196;-44
2022/05/12 04:50:22;;;;;;;7.82;4.35;;;17.10;93.90;;;;;;5052359;28;20291;-44
2022/05/12 04:52:53;;;;;;;9.85;4.45;;;17.10;94.10;;;;;;5054938;28;20775;-43
2022/05/12 04:55:23;;;;;;;10.05;4.05;;;17.10;94.00;;;;;;5060241;28;20203;-35
2022/05/12 04:57:55;;;;;;;13.00;5.32;;;17.10;93.90;;;;;;5051474;28;20270;-35
2022/05/12 05:00:40;;;;;;;10.27;4.40;;;17.10;94.00;;;;;;5049825;28;20601;-35
2022/05/12 05:03:11;;;;;;;8.30;4.60;;;17.10;94.10;;;;;;5056614;28;20663;-36
2022/05/12 05:05:46;;;;;;;8.90;4.90;;;17.10;94.20;;;;;;5057169;28;20409;-36
2022/05/12 05:08:18;;;;;;;10.25;4.50;;;17.10;94.00;;;;;;5064314;28;20268;-36
2022/05/12 05:10:45;;;;;;;10.95;4.82;;;17.10;94.00;;;;;;5053449;28;20694;-35
2022/05/12 05:13:18;;;;;;;7.88;4.70;;;17.10;94.00;;;;;;5052951;28;20318;-43
2022/05/12 05:15:47;;;;;;;12.20;6.00;;;17.10;94.10;;;;;;5051653;28;20302;-43
2022/05/12 05:18:18;;;;;;;10.88;5.57;;;17.20;94.30;;;;;;5054372;28;20211;-43
2022/05/12 05:20:46;;;;;;;12.65;5.90;;;17.20;94.20;;;;;;5050794;28;20657;-43
2022/05/12 05:23:16;;;;;;;11.63;5.90;;;17.20;94.20;;;;;;5050973;28;20634;-43
2022/05/12 05:25:43;;;;;;;14.00;6.18;;;17.30;94.30;;;;;;5055055;28;20531;-43
2022/05/12 05:28:13;;;;;;;11.90;5.43;;;17.30;94.20;;;;;;5057990;28;20262;-43
2022/05/12 05:30:41;;;;;;;11.55;6.25;;;17.30;94.10;;;;;;5059422;28;20683;-35
2022/05/12 05:33:09;;;;;;;15.18;7.07;;;17.30;94.20;;;;;;5060809;28;20588;-35
2022/05/12 05:35:37;;;;;;;10.25;6.13;;;17.40;94.30;;;;;;5053856;28;20297;-35
2022/05/12 05:38:04;;;;;;;13.88;6.03;;;17.40;94.30;;;;;;5066530;28;20212;-35
2022/05/12 05:40:34;;;;;;;15.23;5.85;;;17.40;94.30;;;;;;5061643;28;20215;-35
2022/05/12 05:43:02;;;;;;;10.55;5.90;;;17.50;94.30;;;;;;5058926;28;20200;-35
2022/05/12 05:45:33;;;;;;;13.30;7.00;;;17.40;94.40;;;;;;5056114;28;20203;-35
2022/05/12 05:48:04;;;;;;;10.10;5.95;;;17.40;94.40;;;;;;5058023;28;20673;-35
2022/05/12 05:53:23;;;;;;;9.60;5.90;;;17.40;94.40;;;;;;5057655;28;20282;-35
2022/05/12 05:53:30;;;;;;;11.75;5.72;;;17.50;94.40;;;;;;5048184;28;20226;-35
2022/05/12 05:56:00;;;;;;;13.20;7.00;;;17.50;94.50;;;;;;5062243;28;20560;-42
2022/05/12 05:58:28;;;;;;;13.20;7.47;;;17.50;94.50;;;;;;5065299;28;20211;-43
2022/05/12 06:00:56;;;;;;;15.68;6.93;;;17.50;95.10;;;;;;5060115;28;20211;-43
2022/05/12 06:03:26;;;;;;;10.38;6.13;;;17.50;94.80;;;;;;5064385;28;20212;-43
2022/05/12 06:05:55;;;;;;;11.90;7.25;;;17.50;94.60;;;;;;5053676;28;20204;-43
2022/05/12 06:08:23;;;;;;;15.75;7.70;;;17.60;94.50;;;;;;5049908;28;20291;-43
2022/05/12 06:11:03;;;;;;;15.30;9.48;;;17.60;94.70;;;;;;5051585;28;20216;-42
2022/05/12 06:13:34;;;;;;;17.58;12.82;;;17.60;94.50;;;;;;5062601;28;20261;-43
2022/05/12 06:16:03;;;;;;;24.08;15.73;;;17.60;94.50;;;;;;5066224;28;20660;-43
2022/05/12 06:18:30;;;;;;;15.23;11.20;;;17.60;94.70;;;;;;5049301;28;20216;-43
2022/05/12 06:20:58;;;;;;;25.02;17.17;;;17.70;94.70;;;;;;5059941;28;20219;-43
2022/05/12 06:23:26;;;;;;;24.75;17.92;;;17.80;94.80;;;;;;5042798;28;20220;-44
2022/05/12 06:25:55;;;;;;;14.75;9.50;;;17.80;94.70;;;;;;5044011;28;20635;-43
2022/05/12 06:28:25;;;;;;;11.60;9.00;;;17.80;94.80;;;;;;5051940;28;20757;-43
2022/05/12 06:30:52;;;;;;;12.27;8.38;;;17.90;94.80;;;;;;5055327;28;20200;-43
2022/05/12 06:33:22;;;;;;;11.98;7.40;;;17.90;94.80;;;;;;5052035;28;20203;-43
2022/05/12 06:35:58;;;;;;;11.90;7.55;;;17.90;94.80;;;;;;5048160;28;20220;-44
2022/05/12 06:38:29;;;;;;;10.77;7.32;;;17.90;94.70;;;;;;5046782;28;20189;-44
2022/05/12 06:40:57;;;;;;;13.10;8.05;;;17.90;94.70;;;;;;5055200;28;20285;-44
2022/05/12 06:43:29;;;;;;;16.85;9.38;;;17.90;94.70;;;;;;5051210;28;20196;-44
2022/05/12 06:45:59;;;;;;;15.35;9.95;;;18.00;94.80;;;;;;5048379;28;20760;-44
2022/05/12 06:48:27;;;;;;;11.40;7.32;;;18.00;94.90;;;;;;5059210;28;20192;-44
2022/05/12 06:50:54;;;;;;;12.48;7.40;;;18.00;94.80;;;;;;5054734;28;20342;-44
2022/05/12 06:53:24;;;;;;;12.05;7.72;;;18.10;94.80;;;;;;5056170;28;20203;-43
2022/05/12 06:55:51;;;;;;;11.45;7.03;;;18.10;94.80;;;;;;5052311;28;20369;-44
2022/05/12 06:58:18;;;;;;;17.17;11.98;;;18.20;94.80;;;;;;5048158;28;20208;-44
2022/05/12 07:00:46;;;;;;;13.77;8.98;;;18.20;94.90;;;;;;5063175;28;20227;-43
2022/05/12 07:03:16;;;;;;;9.80;7.03;;;18.20;94.90;;;;;;5063519;28;20682;-45
2022/05/12 07:05:44;;;;;;;11.93;8.75;;;18.30;94.90;;;;;;5047330;28;20668;-44
2022/05/12 07:08:14;;;;;;;22.80;14.00;;;18.30;94.80;;;;;;5049545;28;20294;-43
2022/05/12 07:10:41;;;;;;;21.05;17.20;;;18.30;94.80;;;;;;5054882;28;20848;-44
2022/05/12 07:13:18;;;;;;;17.80;14.23;;;18.30;94.80;;;;;;5048036;28;20248;-44
2022/05/12 07:15:50;;;;;;;19.77;13.18;;;18.40;94.80;;;;;;5058543;28;20336;-43
2022/05/12 07:18:20;;;;;;;15.23;9.52;;;18.40;94.80;;;;;;5060096;28;20284;-43
2022/05/12 07:26:48;;;;;;;9.88;6.68;;;18.40;94.80;;;;;;5062670;28;20208;-44
2022/05/12 07:29:18;;;;;;;11.45;6.75;;;18.40;94.90;;;;;;5054823;28;20554;-44
2022/05/12 07:31:48;;;;;;;10.30;6.70;;;18.40;94.70;;;;;;5051674;28;20703;-44
2022/05/12 07:34:17;;;;;;;10.98;6.50;;;18.40;94.70;;;;;;5043177;28;20252;-44
2022/05/12 07:36:50;;;;;;;11.07;6.68;;;18.40;94.70;;;;;;5058389;28;20227;-44
2022/05/12 07:39:25;;;;;;;9.02;6.78;;;18.40;94.80;;;;;;5051369;28;20270;-44
2022/05/12 07:41:55;;;;;;;9.63;6.57;;;18.50;94.80;;;;;;5047562;28;20717;-44
2022/05/12 07:44:29;;;;;;;10.98;6.28;;;18.50;94.80;;;;;;5047290;28;20232;-45
2022/05/12 07:47:00;;;;;;;15.30;10.30;;;18.50;94.70;;;;;;5047950;28;20211;-44
2022/05/12 07:49:36;;;;;;;14.38;9.00;;;18.50;94.80;;;;;;5047908;28;20308;-44
2022/05/12 07:52:07;;;;;;;18.70;12.20;;;18.60;94.90;;;;;;5062425;28;20207;-44
2022/05/12 07:54:35;;;;;;;18.83;13.32;;;18.60;94.90;;;;;;5054750;28;20305;-44
2022/05/12 07:57:03;;;;;;;14.32;7.97;;;18.60;94.90;;;;;;5060852;28;20211;-44
2022/05/12 07:59:32;;;;;;;15.98;10.13;;;18.70;94.80;;;;;;5045989;28;20207;-45
2022/05/12 08:01:59;;;;;;;14.13;10.10;;;18.70;94.80;;;;;;5053118;28;20197;-44
2022/05/12 08:04:27;;;;;;;22.27;14.70;;;18.70;94.90;;;;;;5054063;28;20638;-45
2022/05/12 08:06:54;;;;;;;25.15;18.27;;;18.80;94.90;;;;;;5056008;28;20290;-44
2022/05/12 08:09:22;;;;;;;16.33;13.98;;;18.80;94.90;;;;;;5049418;28;20204;-44
2022/05/12 08:11:49;;;;;;;16.42;11.77;;;18.80;95.00;;;;;;5054923;28;20235;-44
2022/05/12 08:14:16;;;;;;;12.85;9.05;;;18.90;95.00;;;;;;5052665;28;20235;-37
2022/05/12 08:16:46;;;;;;;11.60;6.88;;;18.90;94.90;;;;;;5046823;28;20204;-37
2022/05/12 08:19:15;;;;;;;11.27;7.72;;;18.90;94.80;;;;;;5046716;28;20300;-37
2022/05/12 08:21:44;;;;;;;15.15;8.35;;;18.90;94.80;;;;;;5045513;28;20232;-36
2022/05/12 08:24:12;;;;;;;24.15;9.98;;;18.90;95.10;;;;;;5048271;28;20213;-36
2022/05/12 08:26:42;;;;;;;22.33;10.70;;;18.90;94.80;;;;;;5056898;28;20295;-36
2022/05/12 08:29:10;;;;;;;19.92;10.20;;;18.90;95.10;;;;;;5052023;28;20251;-37
2022/05/12 08:31:37;;;;;;;18.15;8.48;;;19.00;94.80;;;;;;5048427;28;20641;-37
2022/05/12 08:34:04;;;;;;;17.05;8.70;;;19.00;94.80;;;;;;5049045;28;20203;-37
2022/05/12 08:36:34;;;;;;;10.05;8.32;;;19.00;94.80;;;;;;5055237;28;20239;-37
2022/05/12 08:39:03;;;;;;;13.38;8.70;;;19.00;94.80;;;;;;5061037;28;20211;-37
2022/05/12 08:41:42;;;;;;;14.93;9.13;;;19.00;94.80;;;;;;5055345;28;20227;-37
2022/05/12 08:44:13;;;;;;;12.52;9.27;;;19.10;94.80;;;;;;5057106;28;20195;-37
2022/05/12 08:46:47;;;;;;;14.32;10.18;;;19.10;94.80;;;;;;5066297;28;20661;-36
2022/05/12 08:49:34;;;;;;;21.42;13.25;;;19.10;94.80;;;;;;5064871;28;20283;-44
2022/05/12 08:52:22;;;;;;;13.90;9.02;;;19.20;94.80;;;;;;5052061;28;20216;-44
2022/05/12 08:54:58;;;;;;;15.40;8.20;;;19.20;94.80;;;;;;5050832;28;20230;-44
2022/05/12 08:57:37;;;;;;;18.33;8.60;;;19.20;94.80;;;;;;5048953;28;20670;-44
2022/05/12 09:00:08;;;;;;;14.82;6.88;;;19.30;95.00;;;;;;5049424;28;20219;-44
2022/05/12 09:02:57;;;;;;;14.98;6.88;;;19.30;94.90;;;;;;5048809;28;20287;-37
2022/05/12 09:05:49;;;;;;;11.25;6.25;;;19.40;94.90;;;;;;5050119;28;20979;-37
2022/05/12 09:08:31;;;;;;;11.35;6.50;;;19.50;94.90;;;;;;5051037;28;20200;-36
2022/05/12 09:11:01;;;;;;;12.63;6.25;;;19.50;94.90;;;;;;5058041;28;20252;-37
2022/05/12 09:13:39;;;;;;;11.57;6.38;;;19.60;95.10;;;;;;5057099;28;20208;-37
2022/05/12 09:16:31;;;;;;;14.18;7.32;;;19.70;94.80;;;;;;5048848;28;20207;-36
2022/05/12 09:19:00;;;;;;;10.00;7.10;;;19.70;95.10;;;;;;5058393;28;20227;-37
2022/05/12 09:21:35;;;;;;;13.13;7.18;;;19.80;94.90;;;;;;5065396;28;20595;-37
2022/05/12 09:24:04;;;;;;;10.63;7.32;;;19.80;95.00;;;;;;5068971;28;20302;-44
2022/05/12 09:27:05;;;;;;;12.30;7.18;;;19.90;94.90;;;;;;5060029;28;20204;-43
2022/05/12 09:29:46;;;;;;;17.05;6.97;;;20.00;94.90;;;;;;5058138;28;20215;-44
2022/05/12 09:32:16;;;;;;;13.18;6.72;;;20.00;94.90;;;;;;5062583;28;20223;-43
2022/05/12 09:34:46;;;;;;;10.10;6.88;;;20.10;94.90;;;;;;5064900;28;20239;-43
2022/05/12 09:37:16;;;;;;;18.70;8.27;;;20.20;95.00;;;;;;5048414;28;20269;-44
2022/05/12 09:39:49;;;;;;;18.30;7.60;;;20.20;95.00;;;;;;5065561;28;20222;-43
2022/05/12 09:42:29;;;;;;;18.50;8.65;;;20.30;95.00;;;;;;5066660;28;20200;-44
2022/05/12 09:45:17;;;;;;;13.07;7.95;;;20.40;94.90;;;;;;5060546;28;20678;-44
2022/05/12 09:47:45;;;;;;;10.10;7.95;;;20.40;94.90;;;;;;5050467;28;20220;-43
2022/05/12 09:50:27;;;;;;;9.68;6.78;;;20.50;95.00;;;;;;5050582;28;20207;-44
2022/05/12 09:52:57;;;;;;;8.88;6.07;;;20.60;95.00;;;;;;5052961;28;20204;-36
2022/05/12 09:55:32;;;;;;;14.98;8.05;;;20.60;95.10;;;;;;5055202;28;20204;-36
2022/05/12 09:58:24;;;;;;;15.50;8.13;;;20.70;95.00;;;;;;5060120;28;20213;-36
2022/05/12 10:01:18;;;;;;;12.15;7.47;;;20.80;95.10;;;;;;5051900;28;20319;-36
2022/05/12 10:09:32;;;;;;;16.42;7.75;;;20.90;94.90;;;;;;5068791;28;20217;-36
2022/05/12 10:12:02;;;;;;;11.45;7.30;;;21.00;95.00;;;;;;5065873;28;20242;-35
2022/05/12 10:15:01;;;;;;;12.07;7.95;;;21.00;94.80;;;;;;5065712;28;20247;-42
2022/05/12 10:17:54;;;;;;;9.98;7.35;;;21.10;94.60;;;;;;5055931;28;20204;-43
2022/05/12 10:20:26;;;;;;;14.05;7.35;;;21.10;94.60;;;;;;5046618;28;20248;-43
2022/05/12 10:23:22;;;;;;;10.68;6.80;;;21.10;94.60;;;;;;5056376;28;20203;-43
2022/05/12 10:26:07;;;;;;;13.13;7.10;;;21.20;94.70;;;;;;5052875;28;20319;-43
2022/05/12 10:29:05;;;;;;;13.38;7.13;;;21.20;94.70;;;;;;5047290;28;20338;-36
2022/05/12 10:31:45;;;;;;;9.85;6.38;;;21.30;94.70;;;;;;5049675;28;20919;-36
2022/05/12 10:34:44;;;;;;;11.80;6.95;;;21.30;94.60;;;;;;5051455;28;20210;-42
2022/05/12 10:37:37;;;;;;;8.52;6.38;;;21.40;94.60;;;;;;5051306;28;20222;-43
2022/05/12 10:40:26;;;;;;;20.27;6.97;;;21.40;94.40;;;;;;5056253;28;20666;-43
2022/05/12 10:42:57;;;;;;;14.02;5.90;;;21.40;94.40;;;;;;5057326;28;20685;-43
2022/05/12 10:45:32;;;;;;;12.02;5.38;;;21.40;94.50;;;;;;5050558;28;20619;-43
2022/05/12 10:48:23;;;;;;;9.57;5.10;;;21.40;94.40;;;;;;5050168;28;20191;-43
2022/05/12 10:50:53;;;;;;;12.13;5.93;;;21.50;94.30;;;;;;5055098;28;20219;-43
2022/05/12 10:53:23;;;;;;;9.95;5.00;;;21.50;94.30;;;;;;5047771;28;20208;-43
2022/05/12 10:55:53;;;;;;;8.38;5.25;;;21.50;94.30;;;;;;5052334;28;20214;-43
2022/05/12 10:58:26;;;;;;;11.90;4.53;;;21.50;94.10;;;;;;5052798;28;20653;-43
2022/05/12 11:01:18;;;;;;;9.32;4.20;;;21.50;93.40;;;;;;5051562;28;20230;-43
2022/05/12 11:04:08;;;;;;;8.80;4.10;;;21.50;93.70;;;;;;5045727;28;20295;-43
2022/05/12 11:06:50;;;;;;;5.30;3.90;;;21.50;92.10;;;;;;5058528;28;20303;-36
2022/05/12 11:09:24;;;;;;;6.22;3.72;;;21.30;92.70;;;;;;5046339;28;20212;-36
2022/05/12 11:11:55;;;;;;;6.63;3.58;;;21.30;93.30;;;;;;5050050;28;20243;-36
2022/05/12 11:14:39;;;;;;;7.10;3.03;;;21.40;93.50;;;;;;5049628;28;20216;-35
2022/05/12 11:17:09;;;;;;;6.13;3.17;;;21.50;93.60;;;;;;5064356;28;20785;-36
2022/05/12 11:19:44;;;;;;;5.75;3.20;;;21.50;93.40;;;;;;5050932;28;20200;-36
2022/05/12 11:22:29;;;;;;;7.57;3.20;;;21.50;93.50;;;;;;5045231;28;20230;-36
2022/05/12 11:25:08;;;;;;;5.95;3.20;;;21.60;93.40;;;;;;5051154;28;20719;-36
2022/05/12 11:27:52;;;;;;;9.93;3.45;;;21.60;93.30;;;;;;5055442;28;20572;-36
2022/05/12 11:30:26;;;;;;;4.50;2.47;;;21.70;93.00;;;;;;5051542;28;20192;-36
2022/05/12 11:33:28;;;;;;;3.95;2.30;;;21.70;93.40;;;;;;5057467;28;20203;-36
2022/05/12 11:35:58;;;;;;;3.75;2.25;;;21.80;93.50;;;;;;5061028;28;20208;-36
2022/05/12 11:38:37;;;;;;;3.95;2.17;;;21.80;93.20;;;;;;5053413;28;20205;-35
2022/05/12 11:41:36;;;;;;;9.98;3.28;;;21.90;93.30;;;;;;5062569;28;20259;-36
2022/05/12 11:44:29;;;;;;;10.00;3.00;;;22.00;93.40;;;;;;5060928;28;20207;-36
2022/05/12 11:47:05;;;;;;;7.47;2.33;;;22.00;93.30;;;;;;5046743;28;20295;-36
2022/05/12 11:49:58;;;;;;;5.10;2.25;;;22.10;93.20;;;;;;5053675;28;20578;-44
2022/05/12 11:53:03;;;;;;;4.32;1.90;;;22.10;93.10;;;;;;5045128;28;20265;-44
2022/05/12 11:55:35;;;;;;;4.50;2.00;;;22.30;93.10;;;;;;5038703;28;20212;-44
2022/05/12 11:58:05;;;;;;;7.00;2.05;;;22.30;93.20;;;;;;5049504;28;20203;-44
2022/05/12 12:00:35;;;;;;;7.15;3.10;;;22.30;93.20;;;;;;5046787;28;20285;-42
2022/05/12 12:03:23;;;;;;;11.02;2.80;;;22.40;93.30;;;;;;5057136;28;20787;-44
2022/05/12 12:05:50;;;;;;;13.75;3.30;;;22.40;92.90;;;;;;5054696;28;20213;-44
2022/05/12 12:08:48;;;;;;;4.85;2.45;;;22.50;93.30;;;;;;5056185;28;20198;-44
2022/05/12 12:11:19;;;;;;;8.20;2.67;;;22.50;93.10;;;;;;5063031;28;20612;-44
2022/05/12 12:13:56;;;;;;;6.57;2.65;;;22.60;93.10;;;;;;5052507;28;20917;-44
2022/05/12 12:16:44;;;;;;;8.70;2.92;;;22.60;93.00;;;;;;5058810;28;20204;-44
2022/05/12 12:19:40;;;;;;;12.65;3.13;;;22.70;93.00;;;;;;5054468;28;20227;-36
2022/05/12 12:22:23;;;;;;;17.13;4.20;;;22.70;93.10;;;;;;5058615;28;20224;-36
2022/05/12 12:25:09;;;;;;;10.15;3.55;;;22.80;92.60;;;;;;5060857;28;20195;-36
2022/05/12 12:27:53;;;;;;;10.95;3.00;;;22.80;92.80;;;;;;5062423;28;20456;-36
2022/05/12 12:30:30;;;;;;;6.95;3.15;;;22.80;92.60;;;;;;5069260;28;20286;-36
2022/05/12 12:33:20;;;;;;;5.82;2.10;;;22.80;92.30;;;;;;5064495;28;20698;-35
2022/05/12 12:36:02;;;;;;;7.95;2.90;;;22.90;93.10;;;;;;5064958;28;20207;-36
2022/05/12 12:38:47;;;;;;;5.97;2.63;;;22.90;92.60;;;;;;5054624;28;20566;-44
2022/05/12 12:41:19;;;;;;;6.63;2.45;;;23.00;92.90;;;;;;5058925;28;20236;-44
2022/05/12 12:43:59;;;;;;;9.02;3.45;;;22.90;92.70;;;;;;5049041;28;20219;-44
2022/05/12 12:47:00;;;;;;;7.72;3.55;;;22.90;92.20;;;;;;5050404;28;20216;-43
2022/05/12 12:49:51;;;;;;;9.77;3.20;;;22.90;92.60;;;;;;5038398;28;20208;-44
2022/05/12 12:52:19;;;;;;;10.50;3.90;;;23.00;92.60;;;;;;5060139;28;20213;-43
2022/05/12 12:57:52;;;;;;;10.05;2.88;;;23.10;92.80;;;;;;5057798;28;20192;-44
2022/05/12 13:00:25;;;;;;;4.07;2.78;;;23.30;93.00;;;;;;5051406;28;20698;-44
2022/05/12 13:03:20;;;;;;;6.90;2.65;;;23.20;91.80;;;;;;5051970;28;20235;-44
2022/05/12 13:05:51;;;;;;;7.40;3.10;;;23.20;92.50;;;;;;5068074;28;20195;-45
2022/05/12 13:08:28;;;;;;;9.02;2.90;;;23.20;92.50;;;;;;5060264;28;20783;-45
2022/05/12 13:10:59;;;;;;;5.20;2.80;;;23.30;92.60;;;;;;5058994;28;20887;-44
2022/05/12 13:13:28;;;;;;;6.82;2.42;;;23.30;92.60;;;;;;5048662;28;20679;-44
2022/05/12 13:16:04;;;;;;;6.38;2.70;;;23.40;92.60;;;;;;5047648;28;20235;-44
2022/05/12 13:18:35;;;;;;;6.80;3.28;;;23.40;92.50;;;;;;5049109;28;20203;-44
2022/05/12 13:21:04;;;;;;;5.30;2.38;;;23.50;92.60;;;;;;5048830;28;20558;-44
2022/05/12 13:23:41;;;;;;;4.78;2.00;;;23.50;92.60;;;;;;5058206;28;20204;-44
2022/05/12 13:26:09;;;;;;;8.70;2.95;;;23.50;92.80;;;;;;5059643;28;20188;-45
2022/05/12 13:28:39;;;;;;;4.78;2.05;;;23.50;92.50;;;;;;5047816;28;20220;-44